createdAt,value
2019-04-13T00:05:45.686Z,37.43
2019-04-13T00:08:29.354Z,36.43
2019-04-13T00:11:24.271Z,38.47
2019-04-13T00:14:00.961Z,39.30
2019-04-13T00:16:40.499Z,37.30
2019-04-13T00:19:34.805Z,39.70
2019-04-13T00:22:11.383Z,36.20
2019-04-13T00:24:47.503Z,39.57
2019-04-13T00:27:31.619Z,40.13
2019-04-13T00:30:27.847Z,40.33
2019-04-13T00:33:14.432Z,42.67
2019-04-13T00:36:02.140Z,481.97
2019-04-13T00:39:03.985Z,415.87
2019-04-13T00:41:42.397Z,222.43
2019-04-13T00:44:17.230Z,167.53
2019-04-13T00:46:56.963Z,45.00
2019-04-13T00:49:37.086Z,53.97
2019-04-13T00:52:17.408Z,43.07
2019-04-13T00:55:00.468Z,46.13
2019-04-13T00:57:40.193Z,73.87
2019-04-13T01:00:14.975Z,39.53
2019-04-13T01:03:12.508Z,40.97
2019-04-13T01:05:50.435Z,40.13
2019-04-13T01:08:52.933Z,37.23
2019-04-13T01:11:33.241Z,36.93
2019-04-13T01:14:19.100Z,37.10
2019-04-13T01:17:10.505Z,36.17
2019-04-13T01:19:53.322Z,38.23
2019-04-13T01:22:34.067Z,30.27
2019-04-13T01:25:11.702Z,34.13
2019-04-13T01:27:47.652Z,31.40
2019-04-13T01:30:25.084Z,35.30
2019-04-13T01:33:09.023Z,36.27
2019-04-13T01:35:47.669Z,33.43
2019-04-13T01:38:40.982Z,39.27
2019-04-13T01:41:31.440Z,35.13
2019-04-13T01:44:29.063Z,31.50
2019-04-13T01:47:04.748Z,31.23
2019-04-13T01:49:45.097Z,35.50
2019-04-13T01:52:27.727Z,30.80
2019-04-13T01:55:15.171Z,28.17
2019-04-13T01:58:00.675Z,34.17
2019-04-13T02:01:15.316Z,39.57
2019-04-13T02:07:37.986Z,45.90
2019-04-13T02:10:28.438Z,44.53
2019-04-13T02:13:14.091Z,42.10
2019-04-13T02:15:59.552Z,40.73
2019-04-13T02:18:49.338Z,45.77
2019-04-13T02:21:35.705Z,253.93
2019-04-13T02:24:30.097Z,60.90
2019-04-13T02:27:13.650Z,71.70
2019-04-13T02:30:17.481Z,171.73
2019-04-13T02:32:52.194Z,128.53
2019-04-13T02:35:36.584Z,195.77
2019-04-13T02:38:19.003Z,86.57
2019-04-13T02:41:00.981Z,174.10
2019-04-13T02:43:56.622Z,224.17
2019-04-13T02:46:34.902Z,309.83
2019-04-13T02:49:32.776Z,182.17
2019-04-13T02:52:06.265Z,166.40
2019-04-13T02:54:52.847Z,178.47
2019-04-13T02:57:33.806Z,145.47
2019-04-13T03:03:17.418Z,220.47
2019-04-13T03:05:47.673Z,83.30
2019-04-13T03:08:34.492Z,129.67
2019-04-13T03:11:15.661Z,71.37
2019-04-13T03:13:57.823Z,98.47
2019-04-13T03:17:02.320Z,103.70
2019-04-13T03:19:58.844Z,65.07
2019-04-13T03:22:52.391Z,83.57
2019-04-13T03:25:31.203Z,95.23
2019-04-13T03:31:41.246Z,114.23
2019-04-13T03:34:20.027Z,129.50
2019-04-13T03:37:02.797Z,231.60
2019-04-13T03:39:43.867Z,250.33
2019-04-13T03:42:28.593Z,99.20
2019-04-13T03:44:59.835Z,51.57
2019-04-13T03:47:39.555Z,114.63
2019-04-13T03:50:34.871Z,139.23
2019-04-13T03:53:18.594Z,128.73
2019-04-13T03:55:56.684Z,111.67
2019-04-13T03:58:34.337Z,170.43
2019-04-13T04:01:15.187Z,145.87
2019-04-13T04:04:02.550Z,189.70
2019-04-13T04:06:34.809Z,208.53
2019-04-13T04:09:11.026Z,85.13
2019-04-13T04:11:55.956Z,503.70
2019-04-13T04:14:41.439Z,65.47
2019-04-13T04:17:30.648Z,217.07
2019-04-13T04:19:59.590Z,125.43
2019-04-13T04:22:42.367Z,317.67
2019-04-13T04:25:15.368Z,259.60
2019-04-13T04:28:08.739Z,232.70
2019-04-13T04:30:47.380Z,79.13
2019-04-13T04:33:23.547Z,53.17
2019-04-13T04:36:22.856Z,88.63
2019-04-13T04:38:53.854Z,94.20
2019-04-13T04:41:36.971Z,70.43
2019-04-13T04:44:31.834Z,44.10
2019-04-13T04:47:21.216Z,60.80
2019-04-13T04:49:53.599Z,60.27
2019-04-13T04:55:25.622Z,42.27
2019-04-13T04:58:08.647Z,44.17
2019-04-13T05:00:50.015Z,48.17
2019-04-13T05:03:56.257Z,40.70
2019-04-13T05:06:18.880Z,39.37
2019-04-13T05:09:03.566Z,41.23
2019-04-13T05:11:44.665Z,45.77
2019-04-13T05:14:27.213Z,40.97
2019-04-13T05:19:58.388Z,34.50
2019-04-13T05:22:52.500Z,32.20
2019-04-13T05:25:39.844Z,39.33
2019-04-13T05:28:40.133Z,32.33
2019-04-13T05:31:18.737Z,33.67
2019-04-13T05:34:11.913Z,33.90
2019-04-13T05:36:47.874Z,26.47
2019-04-13T05:39:33.803Z,28.23
2019-04-13T05:42:10.263Z,26.83
2019-04-13T05:44:52.736Z,29.10
2019-04-13T05:47:33.422Z,29.00
2019-04-13T05:50:14.477Z,28.87
2019-04-13T05:52:53.439Z,28.67
2019-04-13T05:55:23.917Z,26.97
2019-04-13T05:58:01.654Z,31.40
2019-04-13T06:00:42.399Z,30.97
2019-04-13T06:03:31.790Z,31.93
2019-04-13T06:06:36.776Z,28.60
2019-04-13T06:09:12.979Z,29.30
2019-04-13T06:11:46.594Z,23.50
2019-04-13T06:14:30.110Z,34.07
2019-04-13T06:17:14.067Z,25.30
2019-04-13T06:20:27.400Z,28.00
2019-04-13T06:23:24.790Z,23.23
2019-04-13T06:26:08.681Z,28.90
2019-04-13T06:28:47.793Z,27.93
2019-04-13T06:31:52.702Z,65.63
2019-04-13T06:34:49.031Z,36.43
2019-04-13T06:37:25.588Z,56.63
2019-04-13T06:40:30.878Z,29.53
2019-04-13T06:43:15.975Z,27.23
2019-04-13T06:45:54.347Z,24.83
2019-04-13T06:48:27.513Z,35.17
2019-04-13T06:51:05.156Z,48.20
2019-04-13T06:53:45.614Z,23.67
2019-04-13T06:56:33.551Z,28.37
2019-04-13T06:59:14.698Z,24.00
2019-04-13T07:01:58.297Z,26.60
2019-04-13T07:04:35.838Z,24.70
2019-04-13T07:07:52.297Z,45.10
2019-04-13T07:10:44.922Z,23.93
2019-04-13T07:13:39.835Z,50.60
2019-04-13T07:16:44.122Z,73.33
2019-04-13T07:19:43.448Z,23.37
2019-04-13T07:22:23.420Z,31.00
2019-04-13T07:25:25.025Z,22.03
2019-04-13T07:28:10.380Z,21.83
2019-04-13T07:30:48.878Z,26.33
2019-04-13T07:33:34.745Z,23.97
2019-04-13T07:36:22.996Z,19.20
2019-04-13T07:39:10.288Z,19.40
2019-04-13T07:41:57.800Z,21.97
2019-04-13T07:45:01.885Z,22.17
2019-04-13T07:48:14.154Z,22.93
2019-04-13T07:51:51.227Z,20.43
2019-04-13T07:54:45.163Z,18.83
2019-04-13T07:57:31.523Z,20.97
2019-04-13T08:00:21.344Z,19.77
2019-04-13T08:03:01.708Z,17.80
2019-04-13T08:05:48.754Z,16.70
2019-04-13T08:08:39.737Z,20.90
2019-04-13T08:11:12.937Z,21.70
2019-04-13T08:13:53.305Z,51.13
2019-04-13T08:16:39.445Z,24.03
2019-04-13T08:19:25.289Z,29.90
2019-04-13T08:22:15.370Z,23.60
2019-04-13T08:24:50.543Z,20.00
2019-04-13T08:27:26.460Z,18.93
2019-04-13T08:30:21.528Z,19.73
2019-04-13T08:33:01.118Z,19.07
2019-04-13T08:35:46.686Z,19.73
2019-04-13T08:38:26.325Z,22.93
2019-04-13T08:41:11.175Z,21.67
2019-04-13T08:43:52.257Z,21.33
2019-04-13T08:46:22.450Z,18.10
2019-04-13T08:49:03.191Z,21.60
2019-04-13T08:52:11.810Z,20.73
2019-04-13T08:54:49.655Z,22.23
2019-04-13T08:58:01.749Z,24.83
2019-04-13T09:01:07.751Z,31.87
2019-04-13T09:04:02.751Z,18.83
2019-04-13T09:06:57.142Z,18.13
2019-04-13T09:09:52.950Z,26.23
2019-04-13T09:12:57.938Z,26.00
2019-04-13T09:15:28.854Z,22.47
2019-04-13T09:18:31.935Z,18.80
2019-04-13T09:21:50.269Z,19.80
2019-04-13T09:24:32.132Z,24.37
2019-04-13T09:27:14.377Z,19.87
2019-04-13T09:29:52.867Z,24.97
2019-04-13T09:32:46.170Z,23.23
2019-04-13T09:35:28.136Z,28.67
2019-04-13T09:38:06.266Z,23.97
2019-04-13T09:40:45.932Z,32.03
2019-04-13T09:43:43.129Z,26.73
2019-04-13T09:46:20.804Z,26.20
2019-04-13T09:49:07.902Z,26.50
2019-04-13T09:51:49.971Z,23.27
2019-04-13T09:54:46.232Z,19.23
2019-04-13T09:57:26.746Z,19.60
2019-04-13T10:00:15.284Z,15.43
2019-04-13T10:03:00.849Z,12.07
2019-04-13T10:05:44.309Z,18.27
2019-04-13T10:08:36.832Z,14.43
2019-04-13T10:11:33.914Z,14.70
2019-04-13T10:14:31.495Z,9.27
2019-04-13T10:17:34.406Z,10.50
2019-04-13T10:20:17.079Z,11.60
2019-04-13T10:23:02.949Z,9.40
2019-04-13T10:25:52.845Z,7.87
2019-04-13T10:28:48.005Z,7.73
2019-04-13T10:31:50.052Z,6.73
2019-04-13T10:34:37.210Z,4.33
2019-04-13T10:37:15.088Z,9.13
2019-04-13T10:40:04.973Z,8.90
2019-04-13T10:43:04.298Z,9.70
2019-04-13T10:46:22.119Z,20.33
2019-04-13T10:49:19.410Z,13.87
2019-04-13T10:52:13.430Z,3.87
2019-04-13T10:55:04.928Z,3.70
2019-04-13T10:58:10.160Z,3.73
2019-04-13T11:00:42.376Z,3.60
2019-04-13T11:03:29.174Z,2.50
2019-04-13T11:06:08.566Z,3.40
2019-04-13T11:08:40.781Z,3.80
2019-04-13T11:11:22.325Z,2.50
2019-04-13T11:14:01.802Z,2.03
2019-04-13T11:16:52.603Z,2.03
2019-04-13T11:19:30.254Z,2.17
2019-04-13T11:22:37.555Z,4.17
2019-04-13T11:25:32.674Z,3.67
2019-04-13T11:28:16.520Z,2.70
2019-04-13T11:31:08.483Z,2.77
2019-04-13T11:34:09.898Z,2.17
2019-04-13T11:36:49.844Z,2.23
2019-04-13T11:39:40.296Z,2.17
2019-04-13T11:42:26.724Z,2.37
2019-04-13T11:45:24.507Z,2.30
2019-04-13T11:48:23.577Z,2.07
2019-04-13T11:50:59.838Z,3.30
2019-04-13T11:53:54.860Z,1.90
2019-04-13T11:57:03.728Z,2.93
2019-04-13T11:59:55.450Z,3.03
2019-04-13T12:02:47.992Z,3.00
2019-04-13T12:05:51.277Z,2.03
2019-04-13T12:08:34.685Z,4.50
2019-04-13T12:11:59.417Z,4.53
2019-04-13T12:15:07.150Z,3.03
2019-04-13T12:18:11.575Z,4.60
2019-04-13T12:21:04.000Z,4.60
2019-04-13T12:23:50.787Z,1.10
2019-04-13T12:26:32.943Z,2.00
2019-04-13T12:29:17.564Z,1.27
2019-04-13T12:31:56.687Z,1.33
2019-04-13T12:34:51.969Z,1.30
2019-04-13T12:37:43.098Z,1.20
2019-04-13T12:41:01.091Z,1.50
2019-04-13T12:43:47.977Z,2.20
2019-04-13T12:46:48.279Z,1.40
2019-04-13T12:49:28.933Z,1.73
2019-04-13T12:52:16.352Z,1.90
2019-04-13T12:55:19.907Z,1.47
2019-04-13T12:58:04.559Z,1.30
2019-04-13T13:01:22.490Z,1.50
2019-04-13T13:04:01.700Z,1.40
2019-04-13T13:06:45.855Z,3.50
2019-04-13T13:09:32.567Z,2.77
2019-04-13T13:12:14.374Z,15.37
2019-04-13T13:15:07.846Z,29.27
2019-04-13T13:18:01.022Z,27.57
2019-04-13T13:20:40.986Z,15.63
2019-04-13T13:23:34.303Z,9.87
2019-04-13T13:26:23.977Z,4.20
2019-04-13T13:29:08.497Z,2.80
2019-04-13T13:32:06.111Z,3.63
2019-04-13T13:35:18.775Z,3.83
2019-04-13T13:37:54.610Z,3.30
2019-04-13T13:40:44.099Z,2.60
2019-04-13T13:46:30.846Z,2.77
2019-04-13T13:49:18.337Z,2.77
2019-04-13T13:52:05.707Z,2.43
2019-04-13T13:54:49.255Z,3.40
2019-04-13T13:57:54.322Z,5.07
2019-04-13T14:01:14.656Z,4.77
2019-04-13T14:03:55.497Z,6.10
2019-04-13T14:06:43.449Z,4.47
2019-04-13T14:09:19.879Z,5.17
2019-04-13T14:11:57.799Z,6.07
2019-04-13T14:14:54.582Z,5.93
2019-04-13T14:17:50.383Z,3.83
2019-04-13T14:20:27.370Z,3.43
2019-04-13T14:25:59.658Z,3.97
2019-04-13T14:28:57.568Z,3.43
2019-04-13T14:31:52.025Z,2.80
2019-04-13T14:37:41.455Z,2.80
2019-04-13T14:40:30.392Z,3.47
2019-04-13T14:43:34.422Z,3.87
2019-04-13T14:49:38.365Z,5.90
2019-04-13T14:52:37.954Z,8.00
2019-04-13T14:55:29.826Z,6.10
2019-04-13T14:58:17.425Z,5.37
2019-04-13T15:00:59.654Z,9.93
2019-04-13T15:04:21.819Z,6.83
2019-04-13T15:07:03.991Z,4.30
2019-04-13T15:09:52.547Z,5.07
2019-04-13T15:12:42.432Z,6.00
2019-04-13T15:15:54.812Z,6.43
2019-04-13T15:18:50.283Z,4.20
2019-04-13T15:21:56.876Z,3.57
2019-04-13T15:24:54.737Z,6.00
2019-04-13T15:37:11.386Z,3.87
2019-04-13T15:40:22.402Z,5.60
2019-04-13T15:43:02.851Z,7.87
2019-04-13T15:48:56.716Z,8.27
2019-04-13T15:51:55.698Z,7.57
2019-04-13T15:55:04.803Z,5.13
2019-04-13T15:57:57.654Z,4.27
2019-04-13T16:00:36.069Z,4.53
2019-04-13T16:03:17.488Z,5.10
2019-04-13T16:06:05.967Z,5.83
2019-04-13T16:09:14.206Z,6.53
2019-04-13T16:12:17.178Z,5.40
2019-04-13T16:15:07.744Z,3.57
2019-04-13T16:18:04.610Z,4.07
2019-04-13T16:21:25.867Z,3.10
2019-04-13T16:24:39.470Z,3.83
2019-04-13T16:27:28.161Z,5.23
2019-04-13T16:30:23.952Z,4.67
2019-04-13T16:33:41.360Z,5.30
2019-04-13T16:36:53.852Z,14.47
2019-04-13T16:39:53.567Z,14.43
2019-04-13T16:43:08.890Z,27.73
2019-04-13T16:46:01.505Z,10.27
2019-04-13T16:52:25.899Z,5.97
2019-04-13T16:56:04.494Z,6.00
2019-04-13T16:59:18.011Z,5.53
2019-04-13T17:02:44.504Z,6.43
2019-04-13T17:05:39.794Z,6.20
2019-04-13T17:08:26.096Z,4.37
2019-04-13T17:11:23.376Z,3.73
2019-04-13T17:14:43.517Z,6.53
2019-04-13T17:17:22.115Z,6.17
2019-04-13T17:20:18.549Z,8.47
2019-04-13T17:23:17.123Z,7.10
2019-04-13T17:26:08.652Z,5.10
2019-04-13T17:29:09.071Z,7.07
2019-04-13T17:32:37.080Z,7.00
2019-04-13T17:35:43.248Z,8.73
2019-04-13T17:38:41.307Z,8.40
2019-04-13T17:41:38.235Z,10.10
2019-04-13T17:44:43.829Z,9.50
2019-04-13T17:47:53.824Z,6.97
2019-04-13T17:50:51.672Z,5.10
2019-04-13T17:53:47.288Z,5.07
2019-04-13T17:56:36.239Z,6.83
2019-04-13T18:00:05.946Z,8.30
2019-04-13T18:03:13.390Z,7.83
2019-04-13T18:06:22.570Z,5.40
2019-04-13T18:10:26.430Z,5.67
2019-04-13T18:12:50.060Z,3.20
2019-04-13T18:15:46.789Z,3.47
2019-04-13T18:18:26.894Z,5.87
2019-04-13T18:21:11.452Z,4.30
2019-04-13T18:24:03.703Z,4.80
2019-04-13T18:26:52.043Z,4.00
2019-04-13T18:29:55.156Z,3.83
2019-04-13T18:32:28.747Z,5.30
2019-04-13T18:35:25.536Z,4.83
2019-04-13T18:38:26.759Z,7.10
2019-04-13T18:41:19.469Z,5.13
2019-04-13T18:44:09.563Z,7.37
2019-04-13T18:46:54.844Z,5.23
2019-04-13T18:49:45.274Z,6.60
2019-04-13T18:52:41.212Z,6.80
2019-04-13T18:55:20.285Z,7.37
2019-04-13T18:58:01.229Z,5.90
2019-04-13T19:00:49.123Z,6.63
2019-04-13T19:03:51.832Z,5.70
2019-04-13T19:06:26.422Z,5.70
2019-04-13T19:09:14.066Z,6.10
2019-04-13T19:12:13.965Z,7.10
2019-04-13T19:15:10.431Z,5.10
2019-04-13T19:17:50.721Z,4.27
2019-04-13T19:20:30.090Z,5.40
2019-04-13T19:23:20.600Z,6.67
2019-04-13T19:26:12.510Z,5.90
2019-04-13T19:28:57.671Z,5.43
2019-04-13T19:31:53.408Z,5.97
2019-04-13T19:34:49.183Z,6.20
2019-04-13T19:37:27.130Z,5.10
2019-04-13T19:43:10.634Z,5.90
2019-04-13T19:45:47.741Z,5.20
2019-04-13T19:48:34.018Z,6.17
2019-04-13T19:51:08.908Z,6.50
2019-04-13T19:56:59.856Z,7.00
2019-04-13T19:59:56.955Z,6.90
2019-04-13T20:02:39.827Z,7.63
2019-04-13T20:05:22.248Z,6.53
2019-04-13T20:07:58.255Z,7.27
2019-04-13T20:10:44.672Z,7.53
2019-04-13T20:13:39.023Z,8.67
2019-04-13T20:16:25.398Z,10.83
2019-04-13T20:19:00.369Z,9.33
2019-04-13T20:21:44.132Z,7.87
2019-04-13T20:24:44.413Z,9.33
2019-04-13T20:27:23.928Z,7.00
2019-04-13T20:30:04.163Z,7.30
2019-04-13T20:32:52.366Z,8.40
2019-04-13T20:35:53.445Z,7.33
2019-04-13T20:38:30.356Z,7.67
2019-04-13T20:41:39.076Z,7.83
2019-04-13T20:44:11.319Z,7.73
2019-04-13T20:46:55.858Z,7.20
2019-04-13T20:49:31.120Z,9.90
2019-04-13T20:52:11.746Z,9.90
2019-04-13T20:54:58.051Z,8.10
2019-04-13T20:57:43.362Z,8.40
2019-04-13T21:00:18.636Z,7.77
2019-04-13T21:02:56.983Z,9.03
2019-04-13T21:05:34.343Z,7.30
2019-04-13T21:08:23.670Z,7.17
2019-04-13T21:11:29.234Z,7.47
2019-04-13T21:14:15.876Z,7.90
2019-04-13T21:16:50.105Z,8.17
2019-04-13T21:19:30.853Z,8.10
2019-04-13T21:22:09.533Z,7.70
2019-04-13T21:24:52.115Z,7.87
2019-04-13T21:27:38.230Z,7.93
2019-04-13T21:30:25.167Z,8.93
2019-04-13T21:33:06.587Z,6.93
2019-04-13T21:35:47.277Z,7.87
2019-04-13T21:38:32.392Z,6.37
2019-04-13T21:41:12.813Z,8.00
2019-04-13T21:43:49.803Z,6.90
2019-04-13T21:46:30.661Z,8.57
2019-04-13T21:49:14.430Z,8.00
2019-04-13T21:52:34.302Z,8.27
2019-04-13T21:55:15.604Z,8.23
2019-04-13T21:57:54.425Z,7.13
2019-04-13T22:00:51.306Z,6.67
2019-04-13T22:03:45.321Z,8.20
2019-04-13T22:06:25.452Z,6.10
2019-04-13T22:09:02.404Z,7.33
2019-04-13T22:11:51.527Z,7.73
2019-04-13T22:14:39.397Z,7.13
2019-04-13T22:17:05.495Z,8.20
2019-04-13T22:19:44.104Z,7.43
2019-04-13T22:22:29.276Z,7.70
2019-04-13T22:25:04.523Z,7.70
2019-04-13T22:28:02.927Z,7.47
2019-04-13T22:31:07.072Z,7.13
2019-04-13T22:33:50.204Z,7.47
2019-04-13T22:36:37.720Z,7.10
2019-04-13T22:39:18.015Z,7.07
2019-04-13T22:42:12.709Z,7.40
2019-04-13T22:45:05.730Z,7.50
2019-04-13T22:47:27.816Z,9.27
2019-04-13T22:50:32.671Z,7.83
2019-04-13T22:53:26.778Z,9.70
2019-04-13T22:56:13.659Z,7.23
2019-04-13T22:58:49.400Z,10.60
2019-04-13T23:01:37.616Z,9.30
2019-04-13T23:04:47.467Z,10.80
2019-04-13T23:07:15.153Z,9.03
2019-04-13T23:09:52.061Z,11.07
2019-04-13T23:16:17.336Z,11.70
2019-04-13T23:19:06.844Z,13.07
2019-04-13T23:21:46.057Z,14.33
2019-04-13T23:24:21.365Z,13.90
2019-04-13T23:27:00.244Z,14.40
2019-04-13T23:29:49.691Z,14.80
2019-04-13T23:32:27.571Z,16.40
2019-04-13T23:35:12.706Z,17.00
2019-04-13T23:37:58.594Z,18.10
2019-04-13T23:40:42.035Z,19.87
2019-04-13T23:43:25.447Z,18.87
2019-04-13T23:45:58.133Z,18.73
2019-04-13T23:48:39.603Z,18.40
2019-04-13T23:54:12.851Z,17.77
2019-04-13T23:57:23.279Z,17.23
